createdAt,value
2023-05-24T00:02:08.194Z,4.32
2023-05-24T00:04:35.055Z,4.80
2023-05-24T00:07:03.356Z,6.40
2023-05-24T00:09:30.687Z,4.70
2023-05-24T00:11:57.428Z,4.68
2023-05-24T00:14:24.129Z,4.63
2023-05-24T00:16:51.127Z,4.35
2023-05-24T00:19:18.974Z,4.38
2023-05-24T00:21:46.114Z,4.63
2023-05-24T00:24:12.873Z,4.85
2023-05-24T00:26:39.832Z,4.70
2023-05-24T00:29:06.634Z,4.97
2023-05-24T00:31:33.492Z,4.90
2023-05-24T00:34:00.220Z,4.93
2023-05-24T00:36:26.952Z,5.28
2023-05-24T00:38:53.848Z,4.80
2023-05-24T00:41:20.666Z,4.47
2023-05-24T00:43:47.450Z,5.65
2023-05-24T00:46:20.527Z,5.00
2023-05-24T00:48:47.297Z,4.45
2023-05-24T00:51:14.768Z,5.22
2023-05-24T00:53:43.485Z,5.03
2023-05-24T00:56:10.193Z,7.22
2023-05-24T00:58:36.818Z,5.60
2023-05-24T01:01:03.670Z,5.35
2023-05-24T01:03:30.531Z,5.10
2023-05-24T01:05:58.187Z,5.68
2023-05-24T01:09:02.773Z,5.25
2023-05-24T01:11:51.512Z,5.75
2023-05-24T01:14:26.643Z,5.47
2023-05-24T01:16:58.005Z,6.00
2023-05-24T01:22:52.272Z,6.38
2023-05-24T01:25:43.595Z,5.57
2023-05-24T01:28:10.325Z,6.15
2023-05-24T01:30:37.002Z,5.53
2023-05-24T01:33:03.728Z,7.15
2023-05-24T01:35:30.461Z,6.30
2023-05-24T01:37:57.129Z,8.15
2023-05-24T01:40:23.767Z,9.00
2023-05-24T01:43:15.754Z,8.88
2023-05-24T01:46:04.039Z,8.00
2023-05-24T01:48:38.381Z,7.43
2023-05-24T01:51:07.434Z,7.40
2023-05-24T01:53:35.005Z,7.05
2023-05-24T01:56:05.037Z,9.73
2023-05-24T01:58:31.726Z,9.32
2023-05-24T02:00:58.625Z,9.70
2023-05-24T02:03:25.515Z,5.75
2023-05-24T02:05:52.217Z,6.57
2023-05-24T02:08:18.878Z,6.63
2023-05-24T02:10:45.536Z,6.03
2023-05-24T02:13:12.235Z,6.05
2023-05-24T02:15:41.693Z,6.28
2023-05-24T02:18:08.569Z,6.38
2023-05-24T02:20:37.154Z,5.82
2023-05-24T02:23:04.420Z,5.88
2023-05-24T02:25:31.609Z,6.50
2023-05-24T02:27:58.995Z,6.90
2023-05-24T02:30:25.788Z,7.60
2023-05-24T02:32:52.509Z,7.15
2023-05-24T02:35:19.608Z,6.22
2023-05-24T02:37:46.446Z,7.97
2023-05-24T02:40:13.319Z,6.78
2023-05-24T02:42:40.015Z,6.65
2023-05-24T02:45:07.433Z,7.85
2023-05-24T02:47:34.048Z,8.10
2023-05-24T02:50:00.836Z,7.88
2023-05-24T02:52:27.564Z,8.70
2023-05-24T02:54:54.243Z,7.43
2023-05-24T02:57:21.693Z,8.95
2023-05-24T02:59:48.315Z,9.20
2023-05-24T03:02:15.445Z,5.63
2023-05-24T03:04:42.162Z,5.50
2023-05-24T03:07:08.804Z,6.95
2023-05-24T03:09:35.592Z,6.40
2023-05-24T03:12:02.321Z,6.20
2023-05-24T03:14:29.013Z,7.15
2023-05-24T03:16:56.031Z,7.22
2023-05-24T03:19:22.813Z,7.50
2023-05-24T03:21:49.504Z,7.90
2023-05-24T03:24:16.246Z,6.07
2023-05-24T03:26:42.954Z,7.22
2023-05-24T03:29:09.573Z,8.00
2023-05-24T03:31:36.292Z,7.28
2023-05-24T03:34:02.937Z,8.48
2023-05-24T03:36:29.645Z,7.85
2023-05-24T03:38:58.567Z,9.40
2023-05-24T03:41:25.291Z,9.77
2023-05-24T03:43:52.570Z,9.13
2023-05-24T03:46:19.388Z,10.13
2023-05-24T03:48:46.149Z,10.13
2023-05-24T03:51:12.874Z,9.35
2023-05-24T03:53:39.573Z,9.52
2023-05-24T03:56:06.479Z,9.70
2023-05-24T03:58:33.312Z,9.27
2023-05-24T04:01:01.003Z,9.98
2023-05-24T04:03:27.881Z,9.02
2023-05-24T04:05:54.847Z,8.50
2023-05-24T04:08:21.535Z,8.38
2023-05-24T04:10:48.201Z,9.18
2023-05-24T04:13:14.781Z,8.52
2023-05-24T04:15:41.942Z,9.40
2023-05-24T04:18:08.736Z,8.93
2023-05-24T04:20:35.686Z,9.13
2023-05-24T04:23:02.439Z,8.93
2023-05-24T04:25:29.587Z,8.27
2023-05-24T04:27:56.944Z,8.38
2023-05-24T04:30:23.560Z,8.60
2023-05-24T04:32:50.657Z,9.23
2023-05-24T04:35:17.555Z,8.73
2023-05-24T04:37:44.546Z,9.10
2023-05-24T04:40:12.069Z,8.43
2023-05-24T04:42:39.167Z,9.20
2023-05-24T04:45:06.975Z,8.00
2023-05-24T04:47:33.891Z,8.50
2023-05-24T04:50:00.792Z,7.63
2023-05-24T04:52:27.764Z,7.25
2023-05-24T04:54:55.555Z,6.53
2023-05-24T04:57:22.386Z,7.05
2023-05-24T04:59:49.064Z,10.02
2023-05-24T05:02:15.820Z,12.10
2023-05-24T05:04:42.651Z,12.70
2023-05-24T05:07:10.055Z,9.98
2023-05-24T05:09:36.711Z,12.63
2023-05-24T05:12:03.381Z,10.52
2023-05-24T05:14:30.031Z,10.70
2023-05-24T05:16:56.789Z,9.88
2023-05-24T05:19:23.716Z,11.57
2023-05-24T05:21:50.755Z,11.20
2023-05-24T05:24:18.089Z,10.88
2023-05-24T05:26:44.803Z,10.02
2023-05-24T05:29:11.510Z,11.32
2023-05-24T05:31:39.484Z,9.82
2023-05-24T05:34:09.574Z,9.55
2023-05-24T05:36:40.640Z,7.75
2023-05-24T05:39:10.792Z,8.38
2023-05-24T05:41:39.759Z,8.73
2023-05-24T05:44:06.619Z,9.75
2023-05-24T05:46:33.505Z,8.55
2023-05-24T05:49:00.197Z,8.35
2023-05-24T05:51:26.907Z,10.32
2023-05-24T05:53:53.666Z,9.50
2023-05-24T05:56:20.436Z,10.48
2023-05-24T05:58:47.108Z,10.13
2023-05-24T06:01:14.079Z,10.43
2023-05-24T06:03:41.347Z,10.25
2023-05-24T06:06:08.269Z,10.00
2023-05-24T06:08:35.227Z,9.63
2023-05-24T06:11:02.132Z,9.02
2023-05-24T06:13:29.102Z,8.85
2023-05-24T06:15:55.990Z,8.32
2023-05-24T06:18:22.634Z,9.73
2023-05-24T06:20:49.434Z,9.13
2023-05-24T06:23:16.207Z,9.27
2023-05-24T06:25:44.419Z,9.02
2023-05-24T06:28:11.467Z,8.23
2023-05-24T06:30:38.286Z,11.63
2023-05-24T06:33:04.947Z,9.80
2023-05-24T06:35:31.790Z,8.07
2023-05-24T06:37:58.667Z,6.80
2023-05-24T06:40:25.337Z,8.23
2023-05-24T06:42:52.107Z,8.15
2023-05-24T06:45:18.765Z,7.60
2023-05-24T06:47:45.533Z,10.25
2023-05-24T06:50:12.200Z,10.20
2023-05-24T06:52:39.004Z,9.57
2023-05-24T06:55:05.954Z,10.35
2023-05-24T06:57:32.989Z,8.38
2023-05-24T06:59:59.632Z,7.03
2023-05-24T07:02:28.584Z,8.23
2023-05-24T07:04:55.484Z,8.43
2023-05-24T07:07:22.205Z,7.47
2023-05-24T07:09:48.966Z,7.65
2023-05-24T07:12:15.852Z,8.38
2023-05-24T07:14:42.682Z,7.93
2023-05-24T07:17:09.630Z,9.10
2023-05-24T07:19:37.574Z,9.02
2023-05-24T07:22:04.630Z,7.63
2023-05-24T07:24:31.533Z,9.13
2023-05-24T07:26:58.361Z,8.80
2023-05-24T07:29:25.939Z,8.57
2023-05-24T07:31:55.885Z,9.20
2023-05-24T07:34:23.830Z,9.30
2023-05-24T07:36:52.316Z,11.23
2023-05-24T07:39:19.341Z,8.38
2023-05-24T07:41:46.501Z,9.65
2023-05-24T07:44:13.491Z,8.90
2023-05-24T07:46:40.326Z,9.10
2023-05-24T07:49:06.997Z,9.70
2023-05-24T07:51:34.048Z,11.10
2023-05-24T07:54:01.014Z,9.52
2023-05-24T07:56:27.771Z,9.05
2023-05-24T07:58:59.224Z,8.85
2023-05-24T08:01:26.037Z,9.38
2023-05-24T08:03:54.706Z,9.15
2023-05-24T08:06:24.251Z,10.70
2023-05-24T08:09:05.238Z,7.82
2023-05-24T08:11:32.483Z,8.77
2023-05-24T08:13:59.436Z,10.00
2023-05-24T08:16:26.706Z,9.82
2023-05-24T08:18:55.463Z,8.00
2023-05-24T08:21:22.509Z,8.75
2023-05-24T08:23:49.440Z,9.45
2023-05-24T08:26:19.192Z,9.90
2023-05-24T08:28:45.905Z,10.20
2023-05-24T08:31:15.052Z,9.90
2023-05-24T08:33:42.976Z,10.95
2023-05-24T08:36:09.895Z,10.07
2023-05-24T08:38:36.764Z,11.05
2023-05-24T08:41:08.580Z,12.32
2023-05-24T08:43:35.640Z,11.53
2023-05-24T08:46:03.460Z,12.02
2023-05-24T08:48:30.163Z,11.57
2023-05-24T08:50:57.926Z,12.40
2023-05-24T08:53:24.820Z,11.23
2023-05-24T08:55:54.029Z,11.50
2023-05-24T08:58:20.809Z,11.32
2023-05-24T09:00:47.651Z,11.35
2023-05-24T09:03:14.602Z,10.13
2023-05-24T09:05:45.897Z,10.13
2023-05-24T09:08:17.729Z,9.82
2023-05-24T09:10:53.939Z,10.68
2023-05-24T09:13:22.757Z,10.13
2023-05-24T09:15:49.477Z,10.02
2023-05-24T09:18:16.322Z,9.27
2023-05-24T09:20:43.388Z,10.57
2023-05-24T09:23:10.333Z,9.63
2023-05-24T09:25:37.121Z,9.48
2023-05-24T09:28:08.607Z,10.60
2023-05-24T09:30:38.489Z,11.27
2023-05-24T09:33:05.665Z,12.40
2023-05-24T09:35:32.526Z,11.27
2023-05-24T09:38:00.462Z,10.70
2023-05-24T09:40:27.595Z,11.88
2023-05-24T09:43:09.992Z,12.38
2023-05-24T09:45:54.002Z,10.88
2023-05-24T09:48:20.621Z,12.45
2023-05-24T09:51:09.565Z,11.38
2023-05-24T09:53:37.130Z,11.13
2023-05-24T09:56:04.412Z,10.57
2023-05-24T09:58:34.706Z,10.50
2023-05-24T10:01:11.346Z,12.23
2023-05-24T10:03:38.362Z,10.88
2023-05-24T10:06:07.527Z,12.77
2023-05-24T10:08:34.720Z,12.77
2023-05-24T10:11:03.177Z,12.07
2023-05-24T10:13:30.304Z,12.02
2023-05-24T10:15:57.857Z,12.40
2023-05-24T10:18:24.668Z,13.50
2023-05-24T10:20:59.059Z,12.63
2023-05-24T10:23:29.621Z,12.38
2023-05-24T10:26:11.449Z,13.68
2023-05-24T10:28:43.324Z,13.45
2023-05-24T10:31:12.943Z,12.07
2023-05-24T10:33:39.991Z,13.07
2023-05-24T10:36:09.460Z,12.05
2023-05-24T10:38:39.692Z,12.35
2023-05-24T10:41:08.135Z,13.20
2023-05-24T10:43:36.103Z,12.43
2023-05-24T10:46:03.796Z,12.98
2023-05-24T10:51:34.124Z,12.50
2023-05-24T10:54:17.598Z,12.13
2023-05-24T10:56:46.996Z,11.93
2023-05-24T10:59:31.562Z,11.82
2023-05-24T11:01:59.114Z,12.23
2023-05-24T11:04:26.496Z,12.27
2023-05-24T11:07:09.839Z,12.48
2023-05-24T11:09:46.055Z,12.15
2023-05-24T11:12:17.994Z,12.35
2023-05-24T11:14:50.033Z,12.15
2023-05-24T11:17:16.961Z,13.27
2023-05-24T11:19:48.193Z,13.60
2023-05-24T11:22:15.330Z,11.98
2023-05-24T11:24:42.819Z,11.90
2023-05-24T11:27:11.359Z,12.30
2023-05-24T11:29:43.398Z,11.98
2023-05-24T11:32:15.429Z,10.25
2023-05-24T11:34:45.083Z,11.27
2023-05-24T11:37:12.933Z,10.60
2023-05-24T11:39:46.921Z,10.55
2023-05-24T11:42:14.642Z,10.52
2023-05-24T11:44:41.415Z,10.05
2023-05-24T11:47:08.462Z,8.65
2023-05-24T11:49:35.511Z,8.77
2023-05-24T11:52:02.596Z,8.90
2023-05-24T11:54:29.442Z,9.27
2023-05-24T11:56:56.327Z,8.88
2023-05-24T11:59:25.169Z,8.50
2023-05-24T12:02:06.615Z,9.05
2023-05-24T12:04:34.535Z,8.13
2023-05-24T12:07:01.547Z,9.75
2023-05-24T12:09:28.594Z,9.50
2023-05-24T12:11:56.443Z,8.65
2023-05-24T12:14:27.531Z,8.32
2023-05-24T12:17:01.220Z,8.40
2023-05-24T12:19:36.043Z,10.43
2023-05-24T12:22:07.048Z,9.48
2023-05-24T12:24:34.494Z,8.10
2023-05-24T12:27:08.652Z,8.02
2023-05-24T12:29:37.131Z,8.10
2023-05-24T12:32:07.122Z,8.40
2023-05-24T12:34:33.859Z,8.50
2023-05-24T12:37:00.842Z,8.32
2023-05-24T12:39:32.122Z,8.27
2023-05-24T12:41:59.444Z,8.88
2023-05-24T12:44:27.907Z,9.35
2023-05-24T12:46:55.910Z,8.68
2023-05-24T12:49:24.381Z,8.52
2023-05-24T12:51:51.609Z,8.23
2023-05-24T12:54:19.864Z,10.63
2023-05-24T12:56:46.718Z,9.48
2023-05-24T12:59:13.892Z,9.05
2023-05-24T13:01:41.087Z,7.95
2023-05-24T13:04:20.489Z,7.90
2023-05-24T13:06:58.844Z,8.07
2023-05-24T13:09:28.544Z,7.93
2023-05-24T13:11:55.684Z,10.02
2023-05-24T13:14:22.622Z,8.50
2023-05-24T13:16:49.366Z,9.05
2023-05-24T13:19:17.012Z,8.60
2023-05-24T13:21:44.148Z,8.10
2023-05-24T13:24:11.893Z,7.30
2023-05-24T13:26:38.995Z,7.93
2023-05-24T13:31:37.596Z,7.82
2023-05-24T13:34:05.074Z,7.80
2023-05-24T13:36:31.930Z,7.63
2023-05-24T13:39:14.208Z,9.40
2023-05-24T13:44:29.352Z,9.48
2023-05-24T13:46:56.529Z,8.88
2023-05-24T13:47:40.612Z,9.52
2023-05-24T13:49:23.325Z,8.82
2023-05-24T13:51:50.093Z,8.45
2023-05-24T13:54:17.374Z,8.27
2023-05-24T13:56:44.825Z,9.07
2023-05-24T13:59:12.583Z,9.45
2023-05-24T14:01:39.353Z,8.95
2023-05-24T14:04:06.878Z,9.10
2023-05-24T14:06:33.816Z,8.98
2023-05-24T14:09:00.654Z,8.77
2023-05-24T14:11:31.270Z,8.48
2023-05-24T14:16:27.657Z,9.45
2023-05-24T14:18:54.409Z,8.73
2023-05-24T14:21:23.253Z,11.43
2023-05-24T14:23:49.986Z,10.40
2023-05-24T14:26:17.837Z,8.68
2023-05-24T14:28:44.665Z,9.07
2023-05-24T14:31:11.338Z,9.82
2023-05-24T14:33:38.457Z,8.52
2023-05-24T14:36:05.415Z,9.15
2023-05-24T14:38:32.340Z,8.93
2023-05-24T14:41:00.382Z,9.68
2023-05-24T14:43:27.113Z,10.45
2023-05-24T14:45:53.978Z,9.35
2023-05-24T14:48:20.650Z,8.63
2023-05-24T14:50:47.322Z,9.15
2023-05-24T14:53:14.232Z,8.90
2023-05-24T14:55:42.493Z,9.52
2023-05-24T14:58:11.832Z,8.68
2023-05-24T15:00:38.949Z,8.48
2023-05-24T15:03:06.178Z,9.02
2023-05-24T15:05:33.333Z,8.75
2023-05-24T15:08:00.098Z,7.78
2023-05-24T15:10:27.054Z,8.90
2023-05-24T15:12:53.874Z,7.97
2023-05-24T15:15:22.382Z,14.27
2023-05-24T15:17:49.219Z,8.23
2023-05-24T15:20:16.107Z,9.18
2023-05-24T15:22:42.943Z,8.00
2023-05-24T15:25:10.554Z,10.05
2023-05-24T15:27:37.275Z,9.15
2023-05-24T15:30:04.593Z,9.18
2023-05-24T15:32:31.532Z,10.35
2023-05-24T15:35:00.364Z,8.75
2023-05-24T15:37:27.147Z,8.98
2023-05-24T15:39:53.922Z,9.30
2023-05-24T15:42:21.572Z,9.00
2023-05-24T15:44:48.380Z,9.15
2023-05-24T15:47:15.040Z,11.00
2023-05-24T15:49:41.726Z,13.48
2023-05-24T15:52:08.699Z,9.23
2023-05-24T15:54:35.888Z,9.07
2023-05-24T15:57:02.777Z,9.57
2023-05-24T15:59:29.506Z,10.80
2023-05-24T16:01:56.822Z,9.02
2023-05-24T16:04:23.650Z,9.63
2023-05-24T16:06:50.582Z,9.75
2023-05-24T16:09:17.297Z,9.43
2023-05-24T16:11:43.976Z,7.93
2023-05-24T16:14:10.872Z,9.00
2023-05-24T16:16:38.051Z,8.55
2023-05-24T16:19:04.829Z,8.93
2023-05-24T16:21:32.575Z,9.88
2023-05-24T16:24:01.617Z,8.82
2023-05-24T16:26:30.773Z,9.85
2023-05-24T16:28:57.888Z,9.32
2023-05-24T16:31:24.820Z,10.18
2023-05-24T16:33:51.530Z,8.60
2023-05-24T16:36:26.210Z,9.70
2023-05-24T16:38:56.304Z,9.63
2023-05-24T16:41:23.086Z,9.35
2023-05-24T16:43:49.720Z,10.48
2023-05-24T16:46:16.544Z,9.52
2023-05-24T16:48:43.254Z,9.52
2023-05-24T16:51:10.275Z,9.70
2023-05-24T16:53:36.982Z,10.35
2023-05-24T16:56:03.662Z,11.27
2023-05-24T16:58:30.778Z,9.43
2023-05-24T17:00:58.338Z,9.10
2023-05-24T17:03:27.733Z,8.50
2023-05-24T17:05:55.417Z,8.93
2023-05-24T17:08:25.655Z,11.15
2023-05-24T17:10:56.062Z,8.68
2023-05-24T17:13:23.554Z,9.50
2023-05-24T17:15:53.930Z,16.77
2023-05-24T17:18:27.632Z,10.98
2023-05-24T17:20:59.047Z,12.00
2023-05-24T17:23:26.263Z,12.52
2023-05-24T17:25:53.703Z,11.88
2023-05-24T17:28:20.540Z,9.02
2023-05-24T17:30:47.585Z,8.27
2023-05-24T17:33:14.292Z,8.02
2023-05-24T17:35:43.101Z,7.22
2023-05-24T17:38:09.948Z,8.38
2023-05-24T17:40:36.579Z,8.32
2023-05-24T17:43:03.431Z,9.23
2023-05-24T17:45:30.514Z,11.32
2023-05-24T17:47:57.352Z,9.52
2023-05-24T17:50:24.046Z,11.52
2023-05-24T17:52:50.972Z,11.00
2023-05-24T17:55:17.748Z,9.23
2023-05-24T17:57:44.682Z,8.93
2023-05-24T18:00:12.415Z,9.30
2023-05-24T18:02:40.081Z,6.93
2023-05-24T18:05:07.702Z,10.05
2023-05-24T18:07:34.491Z,8.13
2023-05-24T18:10:01.263Z,9.00
2023-05-24T18:12:27.913Z,8.48
2023-05-24T18:14:54.826Z,8.73
2023-05-24T18:17:21.638Z,9.25
2023-05-24T18:19:48.379Z,8.50
2023-05-24T18:22:16.420Z,7.82
2023-05-24T18:24:43.176Z,8.65
2023-05-24T18:27:09.925Z,10.00
2023-05-24T18:29:36.632Z,9.45
2023-05-24T18:32:03.349Z,9.00
2023-05-24T18:34:30.776Z,9.13
2023-05-24T18:36:57.494Z,8.63
2023-05-24T18:39:24.494Z,8.13
2023-05-24T18:41:51.299Z,6.07
2023-05-24T18:44:18.131Z,5.38
2023-05-24T18:46:44.999Z,5.00
2023-05-24T18:49:12.752Z,5.32
2023-05-24T18:51:39.921Z,5.57
2023-05-24T18:54:06.767Z,5.45
2023-05-24T18:56:33.406Z,7.28
2023-05-24T18:59:00.214Z,6.05
2023-05-24T19:01:28.177Z,6.65
2023-05-24T19:03:58.199Z,6.60
2023-05-24T19:06:24.838Z,6.63
2023-05-24T19:08:51.516Z,6.72
2023-05-24T19:11:18.228Z,6.43
2023-05-24T19:13:44.989Z,7.65
2023-05-24T19:16:17.280Z,6.78
2023-05-24T19:18:45.015Z,7.28
2023-05-24T19:21:12.340Z,7.00
2023-05-24T19:23:40.425Z,7.82
2023-05-24T19:26:07.402Z,8.35
2023-05-24T19:28:37.599Z,9.13
2023-05-24T19:31:04.885Z,9.85
2023-05-24T19:33:31.629Z,8.88
2023-05-24T19:35:58.276Z,9.05
2023-05-24T19:38:25.021Z,9.38
2023-05-24T19:40:51.714Z,8.93
2023-05-24T19:43:18.442Z,8.60
2023-05-24T19:45:45.675Z,9.13
2023-05-24T19:48:12.740Z,8.88
2023-05-24T19:50:40.565Z,9.48
2023-05-24T19:53:07.252Z,9.48
2023-05-24T19:55:33.947Z,8.05
2023-05-24T19:58:00.615Z,8.48
2023-05-24T20:00:27.706Z,8.38
2023-05-24T20:02:54.417Z,8.00
2023-05-24T20:05:21.138Z,8.20
2023-05-24T20:07:47.828Z,8.65
2023-05-24T20:10:14.537Z,9.20
2023-05-24T20:12:42.516Z,8.68
2023-05-24T20:15:10.694Z,8.85
2023-05-24T20:17:37.442Z,8.15
2023-05-24T20:20:04.457Z,7.57
2023-05-24T20:22:31.124Z,7.82
2023-05-24T20:24:58.046Z,9.18
2023-05-24T20:27:24.716Z,6.32
2023-05-24T20:29:51.592Z,7.32
2023-05-24T20:32:18.277Z,7.45
2023-05-24T20:34:45.016Z,7.22
2023-05-24T20:37:11.723Z,6.50
2023-05-24T20:39:38.498Z,6.28
2023-05-24T20:42:05.343Z,5.90
2023-05-24T20:44:32.551Z,7.25
2023-05-24T20:46:59.303Z,7.45
2023-05-24T20:49:26.059Z,6.25
2023-05-24T20:51:52.687Z,6.05
2023-05-24T20:54:19.433Z,7.32
2023-05-24T20:56:46.180Z,6.30
2023-05-24T20:59:12.939Z,5.60
2023-05-24T21:01:39.709Z,5.00
2023-05-24T21:04:06.400Z,6.07
2023-05-24T21:06:34.139Z,5.43
2023-05-24T21:09:01.779Z,6.18
2023-05-24T21:11:28.508Z,6.15
2023-05-24T21:13:56.663Z,6.07
2023-05-24T21:16:23.717Z,6.55
2023-05-24T21:18:51.904Z,5.80
2023-05-24T21:21:18.651Z,6.38
2023-05-24T21:23:45.461Z,5.35
2023-05-24T21:26:12.154Z,5.93
2023-05-24T21:28:38.786Z,11.10
2023-05-24T21:31:06.585Z,8.48
2023-05-24T21:33:33.309Z,5.40
2023-05-24T21:36:00.018Z,5.60
2023-05-24T21:38:26.683Z,6.07
2023-05-24T21:40:53.395Z,6.30
2023-05-24T21:43:20.065Z,5.05
2023-05-24T21:45:46.710Z,5.55
2023-05-24T21:48:13.378Z,5.78
2023-05-24T21:50:39.992Z,5.75
2023-05-24T21:53:06.782Z,5.28
2023-05-24T21:55:33.426Z,5.68
2023-05-24T21:58:00.093Z,5.80
2023-05-24T22:00:27.917Z,5.43
2023-05-24T22:02:54.764Z,5.43
2023-05-24T22:05:21.586Z,4.45
2023-05-24T22:07:48.458Z,6.32
2023-05-24T22:10:15.417Z,5.30
2023-05-24T22:12:42.222Z,5.95
2023-05-24T22:15:09.256Z,4.60
2023-05-24T22:17:36.865Z,4.70
2023-05-24T22:20:05.980Z,5.18
2023-05-24T22:22:32.710Z,6.05
2023-05-24T22:25:01.801Z,5.10
2023-05-24T22:27:28.981Z,5.53
2023-05-24T22:29:55.993Z,4.82
2023-05-24T22:32:22.794Z,4.63
2023-05-24T22:34:49.563Z,5.97
2023-05-24T22:37:16.767Z,4.32
2023-05-24T22:39:44.978Z,4.70
2023-05-24T22:42:11.814Z,4.70
2023-05-24T22:44:38.464Z,5.00
2023-05-24T22:47:05.282Z,5.38
2023-05-24T22:49:33.949Z,5.20
2023-05-24T22:52:01.008Z,5.75
2023-05-24T22:54:27.688Z,5.07
2023-05-24T22:56:54.420Z,4.22
2023-05-24T22:59:21.213Z,4.90
2023-05-24T23:01:47.917Z,5.38
2023-05-24T23:04:20.365Z,4.93
2023-05-24T23:06:49.410Z,5.28
2023-05-24T23:09:17.603Z,5.70
2023-05-24T23:11:44.350Z,5.10
2023-05-24T23:14:11.032Z,5.38
2023-05-24T23:16:40.197Z,5.10
2023-05-24T23:19:07.061Z,6.03
2023-05-24T23:21:33.970Z,5.63
2023-05-24T23:24:02.057Z,6.40
2023-05-24T23:26:28.903Z,5.60
2023-05-24T23:28:55.927Z,7.50
2023-05-24T23:31:22.647Z,6.05
2023-05-24T23:33:49.407Z,4.88
2023-05-24T23:36:16.126Z,5.82
2023-05-24T23:38:42.739Z,6.93
2023-05-24T23:41:09.423Z,4.97
2023-05-24T23:43:36.094Z,7.30
2023-05-24T23:46:02.805Z,5.95
2023-05-24T23:48:29.644Z,6.45
2023-05-24T23:50:56.591Z,5.85
2023-05-24T23:53:23.359Z,5.65
2023-05-24T23:55:50.026Z,5.35
2023-05-24T23:58:16.785Z,5.72
